createdAt,value
2022-11-17T00:00:48.616Z,1.60
2022-11-17T00:03:17.279Z,1.50
2022-11-17T00:05:46.165Z,1.90
2022-11-17T00:08:16.446Z,1.37
2022-11-17T00:10:44.882Z,1.60
2022-11-17T00:13:31.184Z,1.77
2022-11-17T00:15:59.843Z,1.90
2022-11-17T00:18:45.345Z,2.00
2022-11-17T00:21:21.433Z,2.13
2022-11-17T00:23:51.659Z,1.87
2022-11-17T00:26:22.155Z,1.80
2022-11-17T00:28:54.683Z,2.20
2022-11-17T00:31:41.905Z,2.07
2022-11-17T00:34:15.618Z,2.03
2022-11-17T00:36:47.332Z,2.40
2022-11-17T00:39:18.719Z,1.97
2022-11-17T00:41:47.108Z,1.90
2022-11-17T00:44:15.675Z,1.60
2022-11-17T00:46:44.164Z,2.47
2022-11-17T00:49:14.490Z,2.40
2022-11-17T00:51:43.177Z,2.07
2022-11-17T00:54:13.967Z,2.37
2022-11-17T00:56:43.688Z,2.60
2022-11-17T00:59:12.089Z,2.63
2022-11-17T01:01:40.794Z,3.30
2022-11-17T01:04:09.766Z,2.80
2022-11-17T01:06:40.910Z,2.73
2022-11-17T01:09:13.775Z,2.50
2022-11-17T01:11:44.189Z,2.90
2022-11-17T01:14:16.067Z,3.30
2022-11-17T01:16:44.639Z,2.43
2022-11-17T01:19:15.110Z,2.60
2022-11-17T01:21:43.813Z,2.50
2022-11-17T01:24:13.371Z,2.67
2022-11-17T01:26:45.042Z,3.30
2022-11-17T01:29:17.361Z,2.60
2022-11-17T01:31:50.740Z,2.50
2022-11-17T01:34:19.547Z,1.93
2022-11-17T01:37:05.627Z,2.07
2022-11-17T01:39:34.214Z,2.13
2022-11-17T01:42:14.051Z,2.40
2022-11-17T01:45:04.670Z,2.07
2022-11-17T01:47:49.401Z,2.00
2022-11-17T01:50:29.397Z,1.90
2022-11-17T01:53:02.158Z,2.00
2022-11-17T01:55:36.830Z,1.90
2022-11-17T01:58:10.920Z,1.80
2022-11-17T02:00:39.230Z,1.63
2022-11-17T02:03:11.284Z,1.77
2022-11-17T02:05:51.556Z,1.50
2022-11-17T02:08:24.362Z,2.37
2022-11-17T02:10:53.635Z,2.03
2022-11-17T02:13:24.126Z,1.80
2022-11-17T02:15:52.414Z,1.60
2022-11-17T02:18:21.328Z,1.53
2022-11-17T02:21:10.721Z,1.57
2022-11-17T02:24:09.219Z,1.43
2022-11-17T02:27:40.418Z,1.50
2022-11-17T02:30:15.002Z,1.33
2022-11-17T02:33:00.687Z,1.70
2022-11-17T02:35:39.843Z,1.60
2022-11-17T02:38:20.573Z,1.30
2022-11-17T02:40:55.632Z,1.00
2022-11-17T02:43:50.204Z,1.00
2022-11-17T02:46:22.672Z,1.23
2022-11-17T02:48:56.915Z,1.00
2022-11-17T02:51:26.394Z,1.00
2022-11-17T02:53:57.480Z,1.03
2022-11-17T02:56:25.780Z,1.10
2022-11-17T02:58:58.594Z,1.00
2022-11-17T03:01:55.192Z,1.00
2022-11-17T03:04:32.599Z,1.07
2022-11-17T03:07:16.705Z,1.33
2022-11-17T03:09:51.072Z,1.00
2022-11-17T03:12:29.966Z,1.00
2022-11-17T03:15:06.485Z,1.00
2022-11-17T03:17:45.140Z,1.00
2022-11-17T03:20:17.244Z,1.10
2022-11-17T03:22:54.488Z,1.20
2022-11-17T03:25:25.355Z,0.93
2022-11-17T03:27:58.580Z,0.97
2022-11-17T03:30:33.217Z,0.80
2022-11-17T03:33:12.472Z,1.17
2022-11-17T03:35:50.662Z,1.20
2022-11-17T03:38:23.068Z,1.00
2022-11-17T03:40:53.839Z,0.90
2022-11-17T03:43:22.607Z,1.20
2022-11-17T03:45:54.409Z,1.10
2022-11-17T03:48:31.108Z,1.20
2022-11-17T03:51:09.336Z,1.00
2022-11-17T03:53:38.715Z,1.10
2022-11-17T03:56:18.284Z,1.03
2022-11-17T03:58:55.698Z,0.90
2022-11-17T04:01:25.745Z,1.00
2022-11-17T04:03:55.431Z,0.80
2022-11-17T04:06:23.777Z,1.10
2022-11-17T04:08:52.082Z,1.07
2022-11-17T04:11:37.931Z,0.90
2022-11-17T04:14:23.976Z,1.00
2022-11-17T04:16:52.377Z,0.80
2022-11-17T04:19:22.002Z,1.03
2022-11-17T04:21:50.222Z,0.80
2022-11-17T04:24:18.447Z,0.80
2022-11-17T04:27:04.404Z,0.93
2022-11-17T04:29:34.091Z,1.10
2022-11-17T04:32:02.401Z,0.80
2022-11-17T04:34:32.074Z,0.93
2022-11-17T04:37:05.302Z,1.00
2022-11-17T04:39:39.994Z,0.87
2022-11-17T04:42:07.220Z,1.30
2022-11-17T04:44:35.612Z,1.33
2022-11-17T04:47:04.224Z,0.97
2022-11-17T04:49:34.565Z,0.90
2022-11-17T04:52:03.019Z,1.10
2022-11-17T04:54:31.305Z,1.20
2022-11-17T04:56:59.675Z,1.00
2022-11-17T04:59:27.884Z,1.47
2022-11-17T05:01:59.830Z,1.20
2022-11-17T05:04:48.178Z,1.27
2022-11-17T05:07:17.834Z,1.20
2022-11-17T05:09:46.162Z,1.10
2022-11-17T05:12:31.831Z,1.10
2022-11-17T05:15:00.122Z,1.20
2022-11-17T05:17:27.666Z,1.50
2022-11-17T05:19:57.297Z,1.50
2022-11-17T05:22:44.595Z,1.40
2022-11-17T05:25:12.884Z,1.60
2022-11-17T05:27:41.203Z,1.40
2022-11-17T05:30:11.884Z,1.30
2022-11-17T05:32:40.214Z,1.57
2022-11-17T05:35:09.873Z,1.60
2022-11-17T05:37:39.538Z,1.47
2022-11-17T05:40:10.074Z,1.80
2022-11-17T05:42:38.361Z,1.70
2022-11-17T05:45:08.424Z,2.10
2022-11-17T05:47:36.733Z,1.87
2022-11-17T05:50:05.631Z,1.60
2022-11-17T05:52:33.924Z,1.50
2022-11-17T05:55:03.777Z,1.67
2022-11-17T05:57:33.518Z,1.90
2022-11-17T06:00:05.191Z,1.40
2022-11-17T06:02:48.319Z,1.97
2022-11-17T06:05:20.544Z,1.83
2022-11-17T06:07:49.607Z,1.53
2022-11-17T06:10:19.876Z,1.60
2022-11-17T06:12:48.918Z,1.63
2022-11-17T06:15:17.448Z,1.60
2022-11-17T06:17:52.379Z,1.30
2022-11-17T06:20:25.946Z,1.20
2022-11-17T06:22:54.288Z,1.30
2022-11-17T06:25:24.117Z,1.40
2022-11-17T06:27:53.655Z,1.03
2022-11-17T06:30:22.199Z,1.10
2022-11-17T06:32:51.527Z,1.07
2022-11-17T06:35:19.989Z,1.30
2022-11-17T06:37:48.241Z,0.97
2022-11-17T06:40:17.513Z,0.97
2022-11-17T06:43:08.404Z,1.10
2022-11-17T06:45:38.139Z,1.20
2022-11-17T06:48:08.995Z,1.80
2022-11-17T06:50:37.664Z,1.20
2022-11-17T06:53:10.235Z,1.10
2022-11-17T06:55:39.115Z,1.00
2022-11-17T06:58:11.649Z,1.20
2022-11-17T07:00:40.210Z,1.00
2022-11-17T07:03:10.989Z,0.93
2022-11-17T07:05:40.691Z,1.37
2022-11-17T07:08:10.612Z,1.30
2022-11-17T07:10:40.846Z,1.43
2022-11-17T07:13:13.627Z,1.60
2022-11-17T07:15:41.985Z,1.30
2022-11-17T07:18:10.300Z,1.40
2022-11-17T07:20:38.600Z,1.20
2022-11-17T07:23:07.070Z,1.13
2022-11-17T07:25:35.447Z,1.37
2022-11-17T07:28:04.059Z,1.43
2022-11-17T07:30:33.988Z,1.83
2022-11-17T07:33:02.282Z,1.60
2022-11-17T07:35:31.019Z,1.70
2022-11-17T07:38:01.574Z,1.67
2022-11-17T07:40:30.800Z,1.80
2022-11-17T07:42:59.521Z,1.10
2022-11-17T07:45:31.757Z,1.70
2022-11-17T07:48:04.592Z,2.03
2022-11-17T07:50:33.773Z,2.20
2022-11-17T07:53:02.304Z,1.30
2022-11-17T07:55:30.594Z,1.27
2022-11-17T07:58:01.269Z,1.77
2022-11-17T08:00:31.800Z,1.27
2022-11-17T08:03:04.178Z,1.23
2022-11-17T08:05:41.632Z,1.43
2022-11-17T08:08:13.620Z,1.60
2022-11-17T08:10:43.062Z,1.40
2022-11-17T08:13:11.600Z,1.20
2022-11-17T08:15:42.102Z,2.13
2022-11-17T08:18:11.969Z,1.20
2022-11-17T08:20:40.245Z,1.30
2022-11-17T08:23:08.981Z,1.60
2022-11-17T08:25:37.316Z,1.20
2022-11-17T08:28:05.969Z,1.47
2022-11-17T08:30:37.059Z,1.30
2022-11-17T08:33:05.382Z,1.20
2022-11-17T08:35:37.580Z,1.00
2022-11-17T08:38:06.864Z,1.20
2022-11-17T08:40:35.406Z,1.23
2022-11-17T08:43:03.719Z,1.83
2022-11-17T08:45:32.610Z,1.30
2022-11-17T08:48:01.134Z,1.30
2022-11-17T08:50:29.585Z,1.40
2022-11-17T08:53:01.394Z,1.40
2022-11-17T08:55:29.823Z,1.00
2022-11-17T08:57:58.426Z,1.20
2022-11-17T09:00:26.762Z,1.70
2022-11-17T09:02:55.010Z,1.23
2022-11-17T09:05:25.004Z,1.50
2022-11-17T09:07:53.550Z,1.33
2022-11-17T09:10:23.389Z,2.00
2022-11-17T09:12:51.789Z,1.87
2022-11-17T09:15:20.283Z,1.43
2022-11-17T09:17:48.672Z,1.40
2022-11-17T09:20:18.011Z,1.30
2022-11-17T09:22:46.738Z,1.53
2022-11-17T09:25:16.872Z,1.57
2022-11-17T09:27:47.690Z,1.20
2022-11-17T09:30:21.945Z,1.30
2022-11-17T09:32:50.778Z,2.20
2022-11-17T09:35:19.855Z,2.10
2022-11-17T09:37:48.193Z,1.40
2022-11-17T09:40:21.001Z,1.40
2022-11-17T09:42:50.761Z,1.57
2022-11-17T09:45:24.157Z,1.30
2022-11-17T09:48:18.605Z,1.83
2022-11-17T09:50:51.448Z,1.23
2022-11-17T09:53:26.598Z,1.47
2022-11-17T09:55:59.133Z,1.40
2022-11-17T09:58:39.009Z,1.70
2022-11-17T10:01:12.492Z,1.80
2022-11-17T10:03:46.217Z,1.20
2022-11-17T10:06:20.954Z,1.37
2022-11-17T10:09:00.606Z,1.50
2022-11-17T10:11:35.321Z,1.10
2022-11-17T10:14:14.409Z,1.30
2022-11-17T10:16:47.693Z,2.20
2022-11-17T10:19:19.088Z,1.80
2022-11-17T10:21:51.722Z,1.40
2022-11-17T10:24:40.843Z,1.73
2022-11-17T10:27:23.881Z,1.40
2022-11-17T10:30:01.957Z,1.23
2022-11-17T10:32:33.812Z,1.70
2022-11-17T10:35:16.110Z,1.87
2022-11-17T10:37:53.799Z,1.83
2022-11-17T10:40:25.839Z,1.13
2022-11-17T10:43:22.045Z,1.70
2022-11-17T10:45:55.129Z,1.60
2022-11-17T10:48:30.876Z,1.50
2022-11-17T10:51:01.308Z,1.43
2022-11-17T10:53:44.522Z,1.30
2022-11-17T10:56:17.196Z,1.30
2022-11-17T10:59:03.577Z,1.20
2022-11-17T11:01:36.095Z,1.50
2022-11-17T11:04:08.405Z,1.40
2022-11-17T11:06:37.525Z,1.40
2022-11-17T11:09:13.208Z,1.80
2022-11-17T11:11:45.632Z,1.87
2022-11-17T11:14:21.995Z,2.00
2022-11-17T11:16:52.403Z,1.50
2022-11-17T11:19:22.206Z,1.30
2022-11-17T11:22:28.035Z,1.70
2022-11-17T11:25:08.035Z,1.60
2022-11-17T11:27:57.396Z,1.70
2022-11-17T11:30:25.830Z,1.43
2022-11-17T11:33:15.805Z,2.23
2022-11-17T11:36:06.814Z,1.57
2022-11-17T11:38:57.971Z,1.53
2022-11-17T11:41:43.513Z,1.40
2022-11-17T11:44:42.197Z,1.50
2022-11-17T11:47:29.508Z,1.33
2022-11-17T11:50:06.611Z,1.70
2022-11-17T11:52:41.420Z,1.33
2022-11-17T11:55:21.612Z,1.57
2022-11-17T11:58:12.290Z,1.53
2022-11-17T12:00:42.503Z,1.50
2022-11-17T12:03:25.454Z,1.53
2022-11-17T12:06:35.518Z,1.03
2022-11-17T12:09:32.800Z,2.33
2022-11-17T12:12:07.969Z,2.17
2022-11-17T12:14:38.895Z,1.20
2022-11-17T12:17:23.341Z,1.10
2022-11-17T12:19:59.797Z,1.10
2022-11-17T12:22:57.630Z,1.37
2022-11-17T12:25:31.068Z,1.23
2022-11-17T12:27:59.619Z,1.30
2022-11-17T12:30:53.843Z,1.30
2022-11-17T12:33:22.985Z,1.37
2022-11-17T12:36:31.208Z,1.20
2022-11-17T12:39:02.812Z,1.30
2022-11-17T12:42:06.662Z,1.47
2022-11-17T12:45:00.230Z,1.03
2022-11-17T12:47:31.721Z,1.60
2022-11-17T12:50:38.409Z,1.30
2022-11-17T12:53:43.349Z,1.10
2022-11-17T12:56:36.989Z,1.20
2022-11-17T12:59:49.506Z,1.00
2022-11-17T13:02:48.433Z,1.23
2022-11-17T13:05:21.776Z,1.13
2022-11-17T13:07:50.653Z,1.13
2022-11-17T13:10:27.651Z,1.20
2022-11-17T13:15:54.347Z,1.17
2022-11-17T13:18:34.067Z,1.50
2022-11-17T13:21:03.421Z,1.43
2022-11-17T13:23:33.621Z,1.50
2022-11-17T13:26:19.943Z,1.30
2022-11-17T13:28:49.279Z,1.20
2022-11-17T13:31:23.858Z,1.10
2022-11-17T13:34:05.639Z,0.97
2022-11-17T13:36:34.290Z,1.17
2022-11-17T13:39:04.308Z,1.23
2022-11-17T13:41:40.950Z,1.10
2022-11-17T13:44:16.648Z,1.17
2022-11-17T13:46:46.382Z,1.20
2022-11-17T13:49:41.674Z,1.20
2022-11-17T13:52:24.484Z,1.03
2022-11-17T13:54:53.312Z,0.97
2022-11-17T13:57:28.358Z,1.10
2022-11-17T13:59:58.510Z,1.10
2022-11-17T14:02:30.304Z,1.13
2022-11-17T14:05:08.184Z,1.00
2022-11-17T14:07:38.885Z,0.90
2022-11-17T14:10:15.123Z,1.33
2022-11-17T14:12:43.509Z,1.10
2022-11-17T14:15:16.207Z,1.30
2022-11-17T14:17:51.657Z,0.77
2022-11-17T14:20:31.089Z,0.80
2022-11-17T14:23:03.777Z,1.17
2022-11-17T14:25:35.234Z,1.00
2022-11-17T14:28:03.599Z,1.00
2022-11-17T14:30:32.045Z,1.87
2022-11-17T14:33:09.087Z,1.10
2022-11-17T14:35:40.574Z,1.10
2022-11-17T14:38:11.541Z,1.10
2022-11-17T14:40:39.870Z,0.83
2022-11-17T14:43:08.174Z,1.00
2022-11-17T14:45:36.500Z,1.00
2022-11-17T14:48:07.176Z,1.30
2022-11-17T14:50:35.591Z,1.10
2022-11-17T14:53:04.027Z,1.27
2022-11-17T14:55:32.356Z,1.13
2022-11-17T14:58:00.672Z,1.00
2022-11-17T15:00:29.287Z,1.00
2022-11-17T15:02:58.015Z,1.27
2022-11-17T15:05:27.763Z,1.00
2022-11-17T15:07:57.490Z,1.27
2022-11-17T15:10:26.028Z,1.10
2022-11-17T15:12:54.554Z,1.23
2022-11-17T15:15:22.881Z,1.30
2022-11-17T15:17:51.202Z,1.00
2022-11-17T15:20:19.667Z,1.30
2022-11-17T15:22:51.272Z,1.03
2022-11-17T15:25:19.817Z,1.70
2022-11-17T15:27:48.314Z,1.00
2022-11-17T15:30:17.231Z,0.97
2022-11-17T15:32:45.609Z,1.10
2022-11-17T15:35:13.986Z,1.57
2022-11-17T15:37:42.268Z,1.40
2022-11-17T15:40:18.096Z,1.20
2022-11-17T15:42:48.159Z,0.90
2022-11-17T15:45:16.716Z,1.00
2022-11-17T15:47:45.017Z,1.20
2022-11-17T15:50:13.580Z,1.00
2022-11-17T15:53:02.874Z,1.20
2022-11-17T15:55:31.461Z,1.07
2022-11-17T15:57:59.868Z,1.40
2022-11-17T16:00:28.222Z,1.10
2022-11-17T16:02:58.705Z,1.03
2022-11-17T16:05:27.346Z,1.20
2022-11-17T16:07:55.790Z,1.10
2022-11-17T16:10:24.269Z,1.50
2022-11-17T16:12:54.128Z,1.10
2022-11-17T16:15:22.426Z,1.40
2022-11-17T16:17:50.749Z,1.10
2022-11-17T16:20:19.557Z,1.40
2022-11-17T16:22:48.046Z,1.17
2022-11-17T16:25:16.468Z,1.20
2022-11-17T16:27:45.257Z,1.10
2022-11-17T16:30:15.962Z,1.30
2022-11-17T16:32:44.417Z,1.00
2022-11-17T16:35:12.806Z,1.43
2022-11-17T16:37:41.158Z,1.97
2022-11-17T16:40:10.866Z,1.17
2022-11-17T16:42:39.143Z,1.20
2022-11-17T16:45:08.753Z,1.77
2022-11-17T16:47:38.506Z,1.40
2022-11-17T16:50:08.038Z,1.93
2022-11-17T16:52:36.563Z,1.30
2022-11-17T16:55:05.604Z,2.37
2022-11-17T16:57:33.990Z,1.20
2022-11-17T17:00:02.355Z,2.00
2022-11-17T17:02:30.670Z,1.10
2022-11-17T17:05:00.354Z,1.83
2022-11-17T17:07:28.696Z,1.30
2022-11-17T17:09:56.973Z,1.20
2022-11-17T17:12:25.239Z,1.27
2022-11-17T17:14:53.679Z,1.40
2022-11-17T17:17:22.177Z,1.33
2022-11-17T17:19:50.776Z,2.27
2022-11-17T17:22:20.731Z,1.80
2022-11-17T17:24:49.066Z,1.80
2022-11-17T17:27:17.398Z,1.20
2022-11-17T17:29:45.825Z,1.47
2022-11-17T17:32:14.246Z,2.30
2022-11-17T17:34:42.610Z,2.20
2022-11-17T17:37:10.919Z,1.70
2022-11-17T17:39:40.593Z,3.33
2022-11-17T17:42:09.018Z,2.33
2022-11-17T17:44:37.449Z,2.80
2022-11-17T17:47:06.327Z,1.30
2022-11-17T17:49:34.653Z,1.40
2022-11-17T17:52:03.028Z,2.50
2022-11-17T17:54:31.468Z,1.20
2022-11-17T17:57:01.458Z,1.90
2022-11-17T17:59:29.810Z,1.80
2022-11-17T18:01:58.205Z,1.73
2022-11-17T18:04:26.905Z,1.50
2022-11-17T18:06:56.655Z,1.73
2022-11-17T18:09:25.078Z,1.43
2022-11-17T18:11:53.442Z,1.50
2022-11-17T18:14:24.530Z,1.43
2022-11-17T18:16:53.922Z,1.60
2022-11-17T18:19:25.873Z,1.37
2022-11-17T18:21:56.693Z,1.60
2022-11-17T18:24:25.207Z,1.30
2022-11-17T18:26:53.479Z,1.30
2022-11-17T18:29:23.237Z,1.57
2022-11-17T18:31:51.613Z,1.50
2022-11-17T18:34:22.573Z,1.63
2022-11-17T18:36:52.138Z,1.40
2022-11-17T18:39:21.270Z,1.10
2022-11-17T18:41:49.719Z,1.27
2022-11-17T18:44:19.740Z,1.40
2022-11-17T18:46:49.635Z,2.00
2022-11-17T18:49:18.184Z,1.60
2022-11-17T18:51:46.984Z,1.47
2022-11-17T18:54:15.566Z,1.80
2022-11-17T18:56:44.550Z,2.60
2022-11-17T18:59:13.275Z,1.70
2022-11-17T19:01:43.956Z,1.73
2022-11-17T19:04:15.574Z,1.87
2022-11-17T19:06:44.128Z,1.57
2022-11-17T19:09:13.751Z,1.87
2022-11-17T19:11:42.515Z,1.60
2022-11-17T19:14:11.011Z,1.50
2022-11-17T19:16:44.407Z,1.70
2022-11-17T19:19:16.144Z,1.93
2022-11-17T19:21:45.164Z,2.13
2022-11-17T19:24:14.879Z,1.67
2022-11-17T19:26:43.366Z,1.50
2022-11-17T19:29:17.193Z,0.90
2022-11-17T19:31:47.465Z,1.50
2022-11-17T19:34:19.245Z,1.70
2022-11-17T19:36:47.579Z,1.50
2022-11-17T19:39:17.057Z,1.40
2022-11-17T19:41:47.652Z,1.13
2022-11-17T19:44:16.326Z,1.57
2022-11-17T19:46:44.773Z,1.70
2022-11-17T19:49:14.007Z,1.60
2022-11-17T19:51:44.307Z,1.70
2022-11-17T19:54:14.711Z,1.60
2022-11-17T19:56:43.077Z,1.50
2022-11-17T19:59:16.020Z,2.00
2022-11-17T20:01:45.316Z,1.60
2022-11-17T20:04:13.805Z,1.53
2022-11-17T20:06:43.863Z,2.73
2022-11-17T20:09:15.369Z,1.83
2022-11-17T20:11:44.457Z,2.03
2022-11-17T20:14:14.556Z,1.37
2022-11-17T20:16:43.025Z,2.93
2022-11-17T20:19:12.171Z,1.80
2022-11-17T20:21:40.903Z,1.87
2022-11-17T20:24:11.039Z,1.20
2022-11-17T20:26:41.068Z,1.70
2022-11-17T20:29:09.875Z,1.80
2022-11-17T20:31:38.783Z,1.53
2022-11-17T20:34:07.448Z,1.63
2022-11-17T20:36:35.985Z,1.63
2022-11-17T20:39:07.305Z,1.73
2022-11-17T20:41:37.048Z,1.60
2022-11-17T20:44:23.658Z,1.70
2022-11-17T20:46:54.050Z,1.47
2022-11-17T20:49:23.482Z,1.97
2022-11-17T20:51:51.903Z,2.27
2022-11-17T20:54:20.216Z,2.33
2022-11-17T20:56:50.215Z,1.67
2022-11-17T20:59:20.195Z,2.00
2022-11-17T21:01:50.485Z,1.40
2022-11-17T21:04:19.204Z,2.13
2022-11-17T21:06:47.593Z,1.40
2022-11-17T21:09:16.265Z,2.20
2022-11-17T21:12:00.144Z,1.83
2022-11-17T21:14:30.642Z,2.40
2022-11-17T21:17:00.479Z,1.80
2022-11-17T21:19:30.197Z,1.57
2022-11-17T21:21:58.601Z,1.80
2022-11-17T21:24:27.844Z,1.73
2022-11-17T21:26:56.892Z,1.67
2022-11-17T21:29:25.205Z,1.70
2022-11-17T21:31:54.873Z,1.90
2022-11-17T21:34:23.352Z,2.23
2022-11-17T21:36:51.864Z,2.33
2022-11-17T21:39:20.122Z,2.30
2022-11-17T21:41:48.526Z,2.70
2022-11-17T21:44:16.929Z,3.60
2022-11-17T21:46:45.260Z,2.47
2022-11-17T21:49:15.276Z,2.83
2022-11-17T21:51:44.891Z,2.80
2022-11-17T21:54:13.271Z,2.50
2022-11-17T21:56:41.800Z,3.50
2022-11-17T21:59:14.037Z,2.60
2022-11-17T22:01:42.574Z,3.07
2022-11-17T22:04:12.837Z,2.80
2022-11-17T22:06:42.846Z,2.80
2022-11-17T22:09:11.183Z,3.33
2022-11-17T22:11:39.836Z,2.67
2022-11-17T22:14:11.818Z,3.27
2022-11-17T22:16:42.160Z,3.30
2022-11-17T22:19:12.044Z,3.40
2022-11-17T22:21:40.555Z,3.23
2022-11-17T22:24:12.735Z,4.50
2022-11-17T22:26:43.566Z,3.70
2022-11-17T22:29:14.711Z,2.90
2022-11-17T22:31:44.141Z,2.97
2022-11-17T22:34:13.088Z,3.30
2022-11-17T22:36:41.722Z,3.67
2022-11-17T22:39:11.617Z,3.03
2022-11-17T22:41:40.037Z,3.37
2022-11-17T22:44:08.458Z,3.20
2022-11-17T22:46:36.813Z,3.57
2022-11-17T22:49:05.224Z,3.50
2022-11-17T22:51:50.810Z,3.47
2022-11-17T22:54:20.650Z,3.47
2022-11-17T22:56:48.910Z,3.13
2022-11-17T22:59:17.568Z,3.40
2022-11-17T23:01:46.056Z,3.30
2022-11-17T23:04:16.344Z,2.80
2022-11-17T23:06:44.980Z,3.67
2022-11-17T23:09:14.210Z,2.63
2022-11-17T23:11:44.876Z,3.57
2022-11-17T23:14:15.168Z,2.93
2022-11-17T23:16:43.693Z,3.20
2022-11-17T23:19:15.687Z,2.97
2022-11-17T23:21:44.299Z,2.80
2022-11-17T23:24:14.838Z,3.30
2022-11-17T23:26:44.760Z,3.13
2022-11-17T23:29:13.879Z,2.60
2022-11-17T23:31:42.334Z,2.97
2022-11-17T23:34:11.327Z,3.00
2022-11-17T23:36:39.949Z,2.67
2022-11-17T23:39:08.335Z,2.67
2022-11-17T23:41:36.846Z,3.10
2022-11-17T23:44:07.191Z,3.30
2022-11-17T23:46:35.632Z,3.00
2022-11-17T23:49:04.800Z,2.80
2022-11-17T23:51:33.281Z,2.37
2022-11-17T23:54:02.916Z,3.20
2022-11-17T23:56:34.498Z,2.93
2022-11-17T23:59:03.614Z,3.17
